Time;durP1;ratioP1;P1;durP2;ratioP2;P2;SDS_P1;SDS_P2;PMS_P1;PMS_P2;Temp;Humidity;BMP_temperature;BMP_pressure;BME280_temperature;BME280_humidity;BME280_pressure;Samples;Min_cycle;Max_cycle;Signal;HPM_P1;HPM_P2
2023/01/14 00:02:17;;;;;;;;;1.00;0.25;;;;;10.43;66.40;101180.31;6303295;22;45823;-79
2023/01/14 00:04:43;;;;;;;;;6.50;2.00;;;;;10.52;66.42;101183.25;6307187;22;46623;-77
2023/01/14 00:10:30;;;;;;;;;2.00;1.00;;;;;10.57;67.05;101182.94;6302360;22;45834;-80
2023/01/14 00:12:56;;;;;;;;;3.50;1.00;;;;;10.57;67.31;101182.09;6301685;22;45748;-78
2023/01/14 00:15:21;;;;;;;;;2.00;1.25;;;;;10.48;67.66;101171.25;6302616;22;46064;-78
2023/01/14 00:17:47;;;;;;;;;2.00;1.00;;;;;10.47;67.87;101173.97;6301738;22;46092;-79
2023/01/14 00:20:15;;;;;;;;;2.00;0.25;;;;;10.59;67.77;101182.84;6304332;22;45575;-79
2023/01/14 00:22:41;;;;;;;;;1.00;1.00;;;;;10.60;67.65;101169.66;6302996;22;45687;-77
2023/01/14 00:25:07;;;;;;;;;2.25;2.00;;;;;10.64;67.43;101170.28;6302359;22;45561;-78
2023/01/14 00:27:33;;;;;;;;;2.00;1.00;;;;;10.66;67.77;101156.16;6301623;22;46014;-77
2023/01/14 00:29:58;;;;;;;;;4.00;1.50;;;;;10.69;67.79;101158.59;6302253;22;45510;-81
2023/01/14 00:32:23;;;;;;;;;0.00;0.00;;;;;10.71;67.94;101150.63;6302503;22;45473;-79
2023/01/14 00:34:48;;;;;;;;;1.00;0.75;;;;;10.73;67.96;101138.28;6302590;22;46478;-80
2023/01/14 00:40:35;;;;;;;;;0.75;0.75;;;;;10.77;67.98;101134.53;6302616;22;45577;-79
2023/01/14 00:43:01;;;;;;;;;2.00;1.50;;;;;10.79;67.96;101127.41;6303010;22;45649;-78
2023/01/14 00:45:26;;;;;;;;;1.00;1.00;;;;;10.78;68.11;101121.34;6302580;22;47218;-78
2023/01/14 00:47:52;;;;;;;;;1.75;1.00;;;;;10.77;68.42;101106.53;6303003;22;45744;-79
2023/01/14 00:50:17;;;;;;;;;2.00;1.00;;;;;10.85;68.50;101119.97;6303416;22;45429;-76
2023/01/14 00:56:05;;;;;;;;;1.50;1.00;;;;;10.74;68.92;101080.50;6302807;22;45506;-77
2023/01/14 00:58:30;;;;;;;;;1.00;0.75;;;;;10.86;69.19;101092.84;6303059;22;46188;-78
2023/01/14 01:00:56;;;;;;;;;1.00;1.00;;;;;10.89;69.58;101097.06;6304054;22;45504;-77
2023/01/14 01:03:23;;;;;;;;;3.00;1.50;;;;;10.89;69.38;101099.69;6275423;22;45520;-78
2023/01/14 01:05:49;;;;;;;;;2.00;1.00;;;;;10.89;69.63;101089.19;6306646;22;45491;-80
2023/01/14 01:08:18;;;;;;;;;1.00;1.00;;;;;10.88;69.75;101085.72;6306943;22;45665;-77
2023/01/14 01:10:46;;;;;;;;;3.00;2.00;;;;;10.88;69.66;101071.78;6306049;22;45501;-78
2023/01/14 01:13:12;;;;;;;;;3.00;2.50;;;;;10.81;69.83;101060.00;6304770;22;45579;-79
2023/01/14 01:15:39;;;;;;;;;3.00;2.00;;;;;10.84;69.98;101047.56;6303502;22;45526;-77
2023/01/14 01:18:05;;;;;;;;;2.00;2.00;;;;;10.89;69.89;101052.50;6302540;22;46031;-78
2023/01/14 01:20:31;;;;;;;;;2.75;2.00;;;;;10.72;70.01;101019.53;6303848;22;45574;-77
2023/01/14 01:26:58;;;;;;;;;3.00;2.00;;;;;10.89;70.10;101039.38;6299848;22;45605;-79
2023/01/14 01:29:24;;;;;;;;;3.00;2.50;;;;;10.76;70.00;101022.78;6303470;22;45956;-77
2023/01/14 01:31:49;;;;;;;;;3.00;2.50;;;;;10.90;70.13;101043.69;6303130;22;45534;-78
2023/01/14 01:34:14;;;;;;;;;2.75;2.00;;;;;10.89;70.25;101044.63;6303604;22;45473;-76
2023/01/14 01:36:40;;;;;;;;;2.00;2.00;;;;;10.91;70.18;101042.72;6303578;22;45435;-77
2023/01/14 01:39:05;;;;;;;;;2.75;2.00;;;;;10.92;70.38;101044.41;6304896;22;46081;-77
2023/01/14 01:41:32;;;;;;;;;5.50;3.50;;;;;10.93;70.51;101035.63;6305052;22;45571;-78
2023/01/14 01:44:12;;;;;;;;;2.00;2.00;;;;;10.94;70.45;101047.78;6305368;22;45518;-78
2023/01/14 01:46:39;;;;;;;;;2.00;1.00;;;;;10.95;70.48;101049.47;6304635;22;46532;-77
2023/01/14 01:49:13;;;;;;;;;2.00;2.00;;;;;10.96;70.39;101045.88;6302806;22;46093;-77
2023/01/14 01:52:16;;;;;;;;;3.50;2.00;;;;;10.97;70.48;101047.56;6308444;22;45562;-78
2023/01/14 01:54:48;;;;;;;;;2.50;2.50;;;;;10.99;70.56;101050.09;6244121;22;45671;-78
2023/01/14 01:57:16;;;;;;;;;2.00;2.00;;;;;10.98;70.66;101037.94;6239191;22;45690;-78
2023/01/14 01:59:46;;;;;;;;;4.00;2.25;;;;;11.00;70.72;101033.44;6239159;22;45621;-78
2023/01/14 02:02:12;;;;;;;;;2.50;2.00;;;;;11.04;70.66;101034.91;6238609;22;45712;-78
2023/01/14 02:04:38;;;;;;;;;3.00;2.00;;;;;11.04;70.87;101029.66;6238660;22;45818;-79
2023/01/14 02:07:15;;;;;;;;;3.00;2.00;;;;;11.06;70.81;101023.41;6237542;22;45542;-78
2023/01/14 02:09:40;;;;;;;;;4.00;3.00;;;;;11.09;70.92;101027.56;6238102;22;45932;-77
2023/01/14 02:12:36;;;;;;;;;1.75;1.75;;;;;11.10;70.93;101026.63;6238124;22;45663;-78
2023/01/14 02:15:31;;;;;;;;;4.00;2.00;;;;;11.11;71.26;101009.97;6238412;22;45693;-78
2023/01/14 02:18:17;;;;;;;;;1.25;1.00;;;;;11.08;71.35;100995.28;6237941;22;45866;-79
2023/01/14 02:20:52;;;;;;;;;3.50;1.75;;;;;11.12;71.30;101007.22;6238331;22;46119;-78
2023/01/14 02:23:36;;;;;;;;;1.00;1.00;;;;;11.13;71.31;100987.09;6238003;22;45595;-79
2023/01/14 02:26:20;;;;;;;;;1.75;1.75;;;;;11.14;71.73;100992.25;6237335;22;45645;-77
2023/01/14 02:29:23;;;;;;;;;1.00;1.00;;;;;11.16;71.67;100979.03;6238456;22;46384;-79
2023/01/14 02:32:09;;;;;;;;;1.00;1.00;;;;;11.14;71.53;100967.78;6254301;22;47025;-77
2023/01/14 02:35:07;;;;;;;;;1.00;1.00;;;;;11.19;71.63;100982.28;6271564;22;45684;-79
2023/01/14 02:41:13;;;;;;;;;1.50;0.25;;;;;11.20;72.42;100973.47;6179351;23;45595;-76
2023/01/14 02:44:07;;;;;;;;;1.25;0.00;;;;;11.21;72.80;100980.41;6176861;23;46196;-78
2023/01/14 02:46:49;;;;;;;;;1.75;1.00;;;;;11.13;72.92;100964.34;6177600;23;45763;-80
2023/01/14 02:49:23;;;;;;;;;0.75;0.00;;;;;11.23;72.94;100977.66;6178074;23;45562;-80
2023/01/14 02:51:49;;;;;;;;;0.00;0.00;;;;;11.17;73.02;100957.97;6177508;23;46578;-79
2023/01/14 02:58:04;;;;;;;;;1.00;0.00;;;;;11.28;72.88;100971.16;6176630;23;45731;-78
2023/01/14 03:00:51;;;;;;;;;0.50;0.00;;;;;11.31;72.96;100957.00;6177397;23;45826;-77
2023/01/14 03:03:28;;;;;;;;;0.75;0.75;;;;;11.31;72.96;100949.97;6176846;23;46635;-78
2023/01/14 03:06:14;;;;;;;;;0.00;0.00;;;;;11.33;73.28;100949.88;6183063;23;45536;-78
2023/01/14 03:08:46;;;;;;;;;0.75;0.00;;;;;11.34;72.97;100951.53;6157274;23;45424;-80
2023/01/14 03:11:11;;;;;;;;;0.50;0.00;;;;;11.33;72.76;100947.25;6183741;23;45613;-77
2023/01/14 03:13:57;;;;;;;;;0.00;0.00;;;;;11.35;72.89;100943.56;6196055;22;46429;-77
2023/01/14 03:16:38;;;;;;;;;0.50;0.00;;;;;11.36;72.80;100942.63;6271383;22;46996;-77
2023/01/14 03:19:06;;;;;;;;;1.00;0.25;;;;;11.36;72.82;100932.13;6275159;22;45611;-77
2023/01/14 03:21:39;;;;;;;;;1.25;0.50;;;;;11.36;72.72;100926.03;6276974;22;45438;-80
2023/01/14 03:24:10;;;;;;;;;1.00;0.00;;;;;11.39;72.53;100910.09;6276847;22;45676;-77
2023/01/14 03:26:39;;;;;;;;;0.00;0.00;;;;;11.32;72.40;100891.34;6290934;22;45888;-78
2023/01/14 03:29:10;;;;;;;;;0.00;0.00;;;;;11.40;72.37;100893.41;6302710;22;45703;-78
2023/01/14 03:31:43;;;;;;;;;0.50;0.50;;;;;11.42;72.36;100899.38;6302673;22;45448;-77
2023/01/14 03:34:16;;;;;;;;;1.00;0.00;;;;;11.42;72.21;100870.53;6302270;22;46468;-77
2023/01/14 03:36:44;;;;;;;;;2.00;0.00;;;;;11.40;72.27;100854.06;6302197;22;45897;-77
2023/01/14 03:39:22;;;;;;;;;0.75;0.00;;;;;11.31;72.35;100834.56;6302492;22;45724;-78
2023/01/14 03:45:00;;;;;;;;;0.50;0.00;;;;;11.46;72.28;100853.63;6302065;22;45623;-77
2023/01/14 03:47:28;;;;;;;;;2.00;0.25;;;;;11.45;72.16;100837.97;6302144;22;45546;-78
2023/01/14 03:49:57;;;;;;;;;1.00;0.00;;;;;11.49;72.05;100844.72;6302542;22;45748;-77
2023/01/14 03:56:06;;;;;;;;;6.25;0.00;;;;;11.47;72.05;100809.88;6303531;22;45595;-78
2023/01/14 03:59:00;;;;;;;;;1.00;0.25;;;;;11.52;72.10;100800.72;6303065;22;45946;-79
2023/01/14 04:01:38;;;;;;;;;0.50;0.00;;;;;11.51;72.09;100814.78;6302294;22;45617;-78
2023/01/14 04:04:04;;;;;;;;;1.75;1.00;;;;;11.52;72.08;100811.22;6302935;22;45657;-78
2023/01/14 04:06:29;;;;;;;;;1.75;0.50;;;;;11.44;71.99;100789.09;6304056;22;45512;-81
2023/01/14 04:12:17;;;;;;;;;2.00;1.00;;;;;11.46;72.06;100782.78;6305065;22;45713;-78
2023/01/14 04:17:26;;;;;;;;;0.00;0.00;;;;;11.55;72.09;100765.56;6304204;22;45528;-79
2023/01/14 04:19:51;;;;;;;;;2.00;1.00;;;;;11.52;71.92;100747.41;6275747;22;47912;-78
2023/01/14 04:22:17;;;;;;;;;1.50;0.75;;;;;11.46;72.09;100738.19;6303612;22;45449;-78
2023/01/14 04:28:04;;;;;;;;;2.25;1.75;;;;;11.56;72.04;100752.31;6296464;22;46569;-79
2023/01/14 04:30:29;;;;;;;;;1.00;1.00;;;;;11.56;72.14;100747.06;6303466;22;45672;-78
2023/01/14 04:32:55;;;;;;;;;2.50;1.00;;;;;11.57;72.10;100748.75;6303632;22;46104;-77
2023/01/14 04:35:20;;;;;;;;;2.75;1.00;;;;;11.57;71.98;100737.41;6303683;22;45420;-77
2023/01/14 04:37:46;;;;;;;;;2.75;2.00;;;;;11.50;72.16;100729.13;6306483;22;45695;-79
2023/01/14 04:43:33;;;;;;;;;2.25;2.00;;;;;11.54;72.17;100728.00;6309618;22;45653;-79
2023/01/14 04:45:58;;;;;;;;;1.50;1.00;;;;;11.50;72.06;100717.84;6305859;22;45792;-76
2023/01/14 04:48:24;;;;;;;;;3.75;1.50;;;;;11.35;71.98;100688.28;6303992;22;46651;-79
2023/01/14 04:50:51;;;;;;;;;1.25;1.00;;;;;11.49;71.98;100719.63;6304186;22;46518;-77
2023/01/14 04:59:27;;;;;;;;;1.00;1.00;;;;;11.52;72.11;100695.75;6305113;22;45545;-80
2023/01/14 05:01:53;;;;;;;;;3.00;2.00;;;;;11.45;71.96;100683.19;6304099;22;45706;-80
2023/01/14 05:04:18;;;;;;;;;1.00;1.00;;;;;11.54;71.90;100677.28;6303909;22;45416;-78
2023/01/14 05:06:44;;;;;;;;;1.00;0.75;;;;;11.54;72.07;100678.13;6305698;22;45494;-81
2023/01/14 05:09:09;;;;;;;;;0.75;0.00;;;;;11.53;72.09;100686.94;6305416;22;46271;-79
2023/01/14 05:11:34;;;;;;;;;2.75;2.00;;;;;11.53;71.91;100679.06;6303661;22;45563;-79
2023/01/14 05:14:00;;;;;;;;;1.50;1.00;;;;;11.56;71.96;100680.63;6303030;22;45518;-77
2023/01/14 05:16:26;;;;;;;;;1.50;1.00;;;;;11.56;71.63;100693.75;6303190;22;45816;-77
2023/01/14 05:18:52;;;;;;;;;1.75;1.00;;;;;11.48;71.54;100683.81;6301885;22;47677;-77
2023/01/14 05:21:18;;;;;;;;;2.25;0.75;;;;;11.55;71.68;100682.41;6274600;22;48282;-78
2023/01/14 05:23:44;;;;;;;;;3.00;1.00;;;;;11.55;71.54;100674.53;6302891;22;45612;-78
2023/01/14 05:26:10;;;;;;;;;2.00;1.00;;;;;11.51;71.46;100665.22;6302921;22;45543;-79
2023/01/14 05:28:36;;;;;;;;;2.75;1.00;;;;;11.55;71.40;100677.16;6302623;22;45585;-78
2023/01/14 05:31:02;;;;;;;;;2.25;1.00;;;;;11.56;71.44;100668.34;6303734;22;45642;-77
2023/01/14 05:33:27;;;;;;;;;1.75;1.00;;;;;11.51;71.36;100654.72;6304534;22;45537;-79
2023/01/14 05:35:57;;;;;;;;;1.00;1.00;;;;;11.46;71.36;100643.75;6305516;22;45617;-77
2023/01/14 05:38:24;;;;;;;;;2.25;1.00;;;;;11.57;71.46;100648.19;6307242;22;46392;-78
2023/01/14 05:46:54;;;;;;;;;1.75;1.00;;;;;11.58;70.97;100627.09;6303042;22;45401;-77
2023/01/14 05:49:20;;;;;;;;;1.25;1.00;;;;;11.61;70.82;100631.25;6302552;22;45706;-78
2023/01/14 05:51:45;;;;;;;;;1.00;1.00;;;;;11.54;70.95;100615.16;6302139;22;45525;-77
2023/01/14 05:54:10;;;;;;;;;2.00;1.00;;;;;11.61;70.98;100616.34;6302546;22;45439;-79
2023/01/14 05:56:36;;;;;;;;;1.00;1.00;;;;;11.62;71.04;100615.41;6303046;22;45415;-79
2023/01/14 05:59:01;;;;;;;;;1.00;0.00;;;;;11.53;71.15;100586.41;6302851;22;45466;-79
2023/01/14 06:06:54;;;;;;;;;1.00;0.75;;;;;11.56;70.76;100580.91;6303006;22;45652;-79
2023/01/14 06:09:20;;;;;;;;;1.75;1.00;;;;;11.60;70.64;100577.13;6306034;22;46238;-79
2023/01/14 06:11:45;;;;;;;;;1.50;1.00;;;;;11.57;70.38;100567.69;6311043;22;45543;-80
2023/01/14 06:14:11;;;;;;;;;2.00;1.00;;;;;11.60;70.91;100572.72;6311830;22;45397;-80
2023/01/14 06:16:40;;;;;;;;;1.00;0.00;;;;;11.53;70.58;100558.38;6311294;22;45432;-79
2023/01/14 06:19:11;;;;;;;;;3.00;1.00;;;;;11.59;70.41;100557.94;6308818;22;45939;-80
2023/01/14 06:21:38;;;;;;;;;2.25;0.00;;;;;11.61;70.47;100569.13;6308253;22;45420;-81
2023/01/14 06:24:04;;;;;;;;;1.00;0.00;;;;;11.55;70.41;100532.84;6311224;22;45660;-77
2023/01/14 06:30:06;;;;;;;;;1.00;0.00;;;;;11.57;70.57;100554.56;6306592;22;45640;-77
2023/01/14 06:32:34;;;;;;;;;1.50;1.00;;;;;11.57;70.30;100549.31;6304932;22;46462;-77
2023/01/14 06:34:59;;;;;;;;;1.00;0.00;;;;;11.50;70.48;100524.50;6303439;22;45491;-78
2023/01/14 06:37:24;;;;;;;;;1.50;0.00;;;;;11.57;70.45;100540.63;6300854;22;45824;-77
2023/01/14 06:39:50;;;;;;;;;0.75;0.00;;;;;11.58;70.36;100535.25;6303068;22;46476;-76
2023/01/14 06:42:15;;;;;;;;;2.00;0.50;;;;;11.50;70.42;100519.25;6302348;22;45481;-78
2023/01/14 06:44:40;;;;;;;;;0.00;0.00;;;;;11.58;70.55;100524.75;6302294;22;45549;-79
2023/01/14 06:47:06;;;;;;;;;0.25;0.25;;;;;11.52;70.52;100514.72;6303075;22;45391;-79
2023/01/14 06:49:31;;;;;;;;;1.00;0.50;;;;;11.58;70.69;100530.00;6302792;22;46243;-79
2023/01/14 06:51:56;;;;;;;;;0.25;0.25;;;;;11.60;70.35;100517.63;6302600;22;46320;-77
2023/01/14 06:54:22;;;;;;;;;1.25;0.00;;;;;11.54;70.34;100507.59;6302255;22;45698;-80
2023/01/14 07:00:10;;;;;;;;;0.25;0.00;;;;;11.62;70.89;100517.47;6302651;22;45938;-76
2023/01/14 07:02:36;;;;;;;;;1.50;0.00;;;;;11.59;70.41;100501.97;6275812;22;45882;-80
2023/01/14 07:05:01;;;;;;;;;0.25;0.00;;;;;11.51;70.73;100484.19;6303468;22;45397;-81
2023/01/14 07:07:27;;;;;;;;;2.00;0.00;;;;;11.47;70.69;100479.31;6303469;22;45412;-80
2023/01/14 07:09:53;;;;;;;;;1.00;0.00;;;;;11.60;70.79;100490.53;6303824;22;46574;-78
2023/01/14 07:15:42;;;;;;;;;1.50;0.00;;;;;11.58;70.78;100467.03;6309375;22;45613;-78
2023/01/14 07:18:07;;;;;;;;;0.00;0.00;;;;;11.61;70.97;100481.69;6310661;22;45592;-79
2023/01/14 07:20:34;;;;;;;;;1.50;0.00;;;;;11.63;70.96;100490.28;6304069;22;46732;-81
2023/01/14 07:23:02;;;;;;;;;1.25;0.00;;;;;11.61;71.04;100468.56;6302071;22;46691;-81
2023/01/14 07:25:27;;;;;;;;;0.75;0.25;;;;;11.56;70.81;100455.81;6301571;22;45563;-80
2023/01/14 07:27:53;;;;;;;;;0.50;0.25;;;;;11.63;70.84;100480.63;6301891;22;45814;-79
2023/01/14 07:30:20;;;;;;;;;1.25;1.00;;;;;11.63;70.97;100462.25;6301785;22;47227;-78
2023/01/14 07:32:45;;;;;;;;;1.00;0.00;;;;;11.60;71.15;100438.91;6274777;22;47415;-78
2023/01/14 07:35:10;;;;;;;;;1.00;0.00;;;;;11.64;71.17;100435.06;6275092;22;45821;-77
2023/01/14 07:37:36;;;;;;;;;0.00;0.00;;;;;11.63;71.36;100433.41;6303082;22;45486;-80
2023/01/14 07:40:03;;;;;;;;;0.00;0.00;;;;;11.58;71.60;100430.31;6249157;22;47423;-78
2023/01/14 07:45:51;;;;;;;;;1.50;0.50;;;;;11.59;71.56;100418.84;6309286;22;45447;-82
2023/01/14 07:48:16;;;;;;;;;1.25;1.00;;;;;11.63;71.79;100432.56;6283326;22;45603;-80
2023/01/14 07:50:42;;;;;;;;;0.00;0.00;;;;;11.62;71.61;100436.97;6308990;22;46428;-80
2023/01/14 07:53:09;;;;;;;;;3.00;1.00;;;;;11.53;71.65;100410.63;6305512;22;45482;-77
2023/01/14 07:55:36;;;;;;;;;1.00;0.00;;;;;11.63;71.48;100398.44;6305729;22;45683;-80
2023/01/14 07:58:01;;;;;;;;;0.75;0.00;;;;;11.60;71.71;100419.69;6307850;22;45562;-79
2023/01/14 08:00:27;;;;;;;;;2.00;0.25;;;;;11.64;71.76;100418.50;6310322;22;47219;-79
2023/01/14 08:02:52;;;;;;;;;0.25;0.00;;;;;11.65;71.82;100422.78;6309663;22;46949;-78
2023/01/14 08:05:18;;;;;;;;;2.00;1.00;;;;;11.59;71.98;100394.41;6307740;22;45477;-79
2023/01/14 08:07:43;;;;;;;;;1.25;1.00;;;;;11.59;72.15;100403.13;6280239;22;45605;-81
2023/01/14 08:10:10;;;;;;;;;1.50;1.00;;;;;11.60;72.19;100381.19;6306718;22;46250;-81
2023/01/14 08:15:59;;;;;;;;;2.25;0.50;;;;;11.63;71.81;100374.84;6305216;22;45676;-80
2023/01/14 08:18:25;;;;;;;;;0.50;0.50;;;;;11.61;72.40;100384.59;6277610;22;45491;-80
2023/01/14 08:20:58;;;;;;;;;1.00;0.00;;;;;11.61;72.41;100377.56;6305437;22;46430;-79
2023/01/14 08:23:23;;;;;;;;;0.00;0.00;;;;;11.60;72.74;100370.69;6277775;22;46849;-79
2023/01/14 08:25:50;;;;;;;;;1.00;0.00;;;;;11.53;72.90;100340.63;6304392;22;45664;-81
2023/01/14 08:28:15;;;;;;;;;0.00;0.00;;;;;11.61;72.91;100371.50;6305317;22;45625;-79
2023/01/14 08:30:41;;;;;;;;;0.00;0.00;;;;;11.61;72.88;100364.44;6304270;22;45775;-77
2023/01/14 08:33:07;;;;;;;;;2.00;1.00;;;;;11.60;73.03;100368.06;6304337;22;45557;-80
2023/01/14 08:35:32;;;;;;;;;0.75;0.75;;;;;11.61;73.25;100347.88;6304672;22;45573;-78
2023/01/14 08:37:58;;;;;;;;;0.00;0.00;;;;;11.60;73.20;100340.97;6305218;22;45566;-78
2023/01/14 08:40:23;;;;;;;;;0.00;0.00;;;;;11.61;73.29;100343.47;6305222;22;46336;-79
2023/01/14 08:46:10;;;;;;;;;1.75;0.50;;;;;11.62;73.42;100337.25;6306918;22;45391;-77
2023/01/14 08:48:36;;;;;;;;;1.25;0.00;;;;;11.60;73.18;100360.19;6310901;22;45518;-81
2023/01/14 08:51:06;;;;;;;;;1.00;1.00;;;;;11.57;73.41;100336.78;6309964;22;46426;-80
2023/01/14 08:53:32;;;;;;;;;1.00;0.25;;;;;11.63;73.50;100346.81;6307997;22;46944;-79
2023/01/14 08:55:59;;;;;;;;;1.00;0.50;;;;;11.64;73.56;100324.03;6305930;22;45621;-78
2023/01/14 09:01:46;;;;;;;;;1.25;0.75;;;;;11.64;73.74;100322.25;6303467;22;45530;-81
2023/01/14 09:04:11;;;;;;;;;2.00;0.25;;;;;11.71;73.58;100335.72;6302493;22;45599;-81
2023/01/14 09:17:04;;;;;;;;;2.75;0.75;;;;;11.71;73.78;100327.84;6299560;22;45656;-79
2023/01/14 09:17:37;;;;;;;;;1.50;1.00;;;;;11.78;73.85;100287.03;6304802;22;45582;-78
2023/01/14 09:20:03;;;;;;;;;0.75;0.75;;;;;11.82;74.08;100309.47;6299755;22;45635;-74
2023/01/14 09:22:30;;;;;;;;;1.00;0.50;;;;;11.83;74.08;100307.66;6300573;22;45522;-77
2023/01/14 09:24:56;;;;;;;;;1.00;1.00;;;;;11.89;74.33;100297.50;6298213;22;45869;-76
2023/01/14 09:27:22;;;;;;;;;1.00;0.25;;;;;11.90;74.20;100290.47;6300222;22;45687;-76
2023/01/14 09:29:48;;;;;;;;;0.75;0.00;;;;;11.94;73.94;100291.88;6302279;22;45483;-75
2023/01/14 09:32:15;;;;;;;;;1.00;0.50;;;;;11.96;74.34;100288.16;6301762;22;46846;-76
2023/01/14 09:34:43;;;;;;;;;0.25;0.25;;;;;11.98;74.51;100288.88;6302994;22;45834;-74
2023/01/14 09:37:09;;;;;;;;;1.00;1.00;;;;;11.97;74.55;100275.88;6302104;22;45432;-77
2023/01/14 09:39:34;;;;;;;;;1.00;0.00;;;;;12.00;74.62;100271.19;6303407;22;45572;-75
2023/01/14 09:42:31;;;;;;;;;1.00;0.75;;;;;12.00;74.37;100268.56;6273825;22;48355;-76
2023/01/14 09:45:06;;;;;;;;;0.00;0.00;;;;;12.02;74.39;100285.03;6300808;22;46993;-74
2023/01/14 09:47:31;;;;;;;;;0.50;0.00;;;;;12.08;74.05;100281.91;6301917;22;45653;-74
2023/01/14 09:49:57;;;;;;;;;0.00;0.00;;;;;12.05;74.03;100255.91;6303282;22;45550;-74
2023/01/14 09:52:34;;;;;;;;;1.25;1.00;;;;;12.12;74.14;100271.97;6301488;22;45729;-74
2023/01/14 09:55:08;;;;;;;;;2.00;1.00;;;;;12.17;74.07;100267.19;6302915;22;46190;-76
2023/01/14 09:57:50;;;;;;;;;1.00;1.00;;;;;12.19;73.94;100270.53;6302840;22;45563;-75
2023/01/14 10:00:37;;;;;;;;;2.00;1.00;;;;;12.14;74.18;100259.56;6302617;22;45511;-73
2023/01/14 10:03:24;;;;;;;;;1.75;1.50;;;;;12.20;74.25;100290.53;6303104;22;46752;-74
2023/01/14 10:06:13;;;;;;;;;1.00;1.00;;;;;12.23;73.85;100278.97;6303357;22;46173;-75
2023/01/14 10:08:53;;;;;;;;;1.00;1.00;;;;;12.26;74.20;100269.03;6304480;22;45567;-73
2023/01/14 10:11:19;;;;;;;;;1.00;0.75;;;;;12.29;74.22;100265.31;6303898;22;45418;-74
2023/01/14 10:13:59;;;;;;;;;0.75;0.75;;;;;12.29;73.73;100255.66;6273775;22;47765;-75
2023/01/14 10:16:38;;;;;;;;;1.00;1.00;;;;;12.37;74.09;100281.25;6270407;22;47136;-76
2023/01/14 10:19:20;;;;;;;;;0.75;0.75;;;;;12.33;73.96;100235.22;6302271;22;45603;-76
2023/01/14 10:21:59;;;;;;;;;0.50;0.50;;;;;12.33;73.48;100237.84;6302394;22;45804;-76
2023/01/14 10:24:24;;;;;;;;;0.75;0.00;;;;;12.35;73.88;100226.25;6302707;22;45656;-75
2023/01/14 10:26:51;;;;;;;;;0.00;0.00;;;;;12.39;73.76;100221.56;6274582;22;46959;-76
2023/01/14 10:29:21;;;;;;;;;1.00;0.00;;;;;12.47;73.89;100217.31;6299903;22;45633;-76
2023/01/14 10:31:53;;;;;;;;;1.75;1.00;;;;;12.52;73.49;100232.69;6302930;22;45582;-75
2023/01/14 10:34:26;;;;;;;;;0.50;0.00;;;;;12.53;73.46;100224.66;6302096;22;47210;-74
2023/01/14 10:36:52;;;;;;;;;0.00;0.00;;;;;12.57;73.46;100235.78;6273927;22;47471;-77
2023/01/14 10:39:18;;;;;;;;;1.00;0.00;;;;;12.57;74.06;100233.97;6302844;22;45574;-75
2023/01/14 10:41:49;;;;;;;;;2.50;0.00;;;;;12.53;73.88;100229.91;6275533;22;45613;-76
2023/01/14 10:44:27;;;;;;;;;2.00;1.00;;;;;12.43;73.88;100197.50;6301872;22;46312;-75
2023/01/14 10:47:16;;;;;;;;;0.75;0.75;;;;;12.57;73.85;100214.75;6302332;22;46042;-75
2023/01/14 10:49:48;;;;;;;;;1.25;0.00;;;;;12.57;73.94;100214.75;6301786;22;45477;-74
2023/01/14 10:52:19;;;;;;;;;0.00;0.00;;;;;12.60;73.91;100203.97;6302792;22;45568;-75
2023/01/14 10:54:58;;;;;;;;;1.00;1.00;;;;;12.61;74.14;100200.38;6302455;22;46539;-76
2023/01/14 10:57:24;;;;;;;;;0.00;0.00;;;;;12.63;73.85;100200.25;6302499;22;46022;-75
2023/01/14 10:59:52;;;;;;;;;0.00;0.00;;;;;12.62;74.16;100186.28;6302070;22;45570;-75
2023/01/14 11:02:47;;;;;;;;;1.25;1.00;;;;;12.59;73.99;100178.63;6301783;22;45679;-76
2023/01/14 11:05:33;;;;;;;;;1.00;1.00;;;;;12.66;73.95;100184.19;6273759;22;47437;-76
2023/01/14 11:08:15;;;;;;;;;0.00;0.00;;;;;12.66;74.07;100182.41;6301564;22;46437;-77
2023/01/14 11:10:41;;;;;;;;;0.00;0.00;;;;;12.63;74.21;100151.94;6302359;22;45678;-76
2023/01/14 11:16:31;;;;;;;;;1.00;1.00;;;;;12.69;74.06;100150.59;6297912;22;45517;-75
2023/01/14 11:19:15;;;;;;;;;1.00;1.00;;;;;12.71;74.00;100151.31;6300513;22;46166;-75
2023/01/14 11:21:43;;;;;;;;;1.00;1.00;;;;;12.65;73.82;100138.69;6300549;22;45625;-74
2023/01/14 11:24:42;;;;;;;;;1.00;1.00;;;;;12.74;74.33;100139.69;6300235;22;45856;-75
2023/01/14 11:27:20;;;;;;;;;1.00;0.00;;;;;12.75;73.98;100121.16;6300858;22;45579;-76
2023/01/14 11:33:50;;;;;;;;;2.50;2.00;;;;;12.76;73.81;100101.78;6300468;22;45884;-74
2023/01/14 11:36:24;;;;;;;;;2.25;1.00;;;;;12.77;74.28;100100.81;6302461;22;45435;-75
2023/01/14 11:38:50;;;;;;;;;1.00;1.00;;;;;12.81;73.98;100091.69;6302182;22;46448;-74
2023/01/14 11:41:37;;;;;;;;;1.50;1.00;;;;;12.74;74.33;100066.91;6301519;22;47160;-76
2023/01/14 11:47:26;;;;;;;;;2.00;2.00;;;;;12.83;74.07;100081.88;6301829;22;45601;-74
2023/01/14 11:50:30;;;;;;;;;3.00;1.75;;;;;12.82;74.53;100076.75;6301033;22;45546;-74
2023/01/14 11:53:18;;;;;;;;;1.00;1.00;;;;;12.82;74.12;100045.22;6174950;23;46107;-73
2023/01/14 11:55:47;;;;;;;;;2.00;2.00;;;;;12.79;74.72;100050.75;6175579;23;45947;-73
2023/01/14 12:05:09;;;;;;;;;1.00;1.00;;;;;12.81;74.46;100027.75;6178883;23;45867;-77
2023/01/14 12:07:52;;;;;;;;;2.00;1.00;;;;;12.88;74.54;100027.09;6179535;23;45659;-78
2023/01/14 12:10:32;;;;;;;;;2.25;1.00;;;;;12.87;74.54;100011.44;6176008;23;45807;-75
2023/01/14 12:19:52;;;;;;;;;1.25;0.75;;;;;12.94;74.24;99989.72;6176754;23;45580;-75
2023/01/14 12:22:23;;;;;;;;;2.00;2.00;;;;;12.95;74.33;99974.78;6086925;23;45695;-76
2023/01/14 12:24:51;;;;;;;;;1.00;1.00;;;;;12.98;74.27;99970.06;6199457;22;46440;-75
2023/01/14 12:27:42;;;;;;;;;2.00;1.75;;;;;13.00;74.32;99957.63;6205515;22;46884;-74
2023/01/14 12:30:20;;;;;;;;;1.00;1.00;;;;;13.04;74.25;99969.50;6207114;22;45640;-74
2023/01/14 12:33:04;;;;;;;;;1.50;1.50;;;;;13.06;74.34;99955.41;6206628;22;45567;-74
2023/01/14 12:35:53;;;;;;;;;2.00;2.00;;;;;13.11;74.21;99942.66;6181207;22;46821;-76
2023/01/14 12:47:29;;;;;;;;;1.00;1.00;;;;;13.22;73.67;99911.78;6207466;22;45598;-75
2023/01/14 12:49:54;;;;;;;;;0.25;0.25;;;;;13.23;73.41;99905.53;6184316;22;46206;-78
2023/01/14 12:52:30;;;;;;;;;1.50;1.50;;;;;13.18;73.47;99899.88;6210129;22;45641;-78
2023/01/14 12:54:58;;;;;;;;;1.00;1.00;;;;;13.23;73.71;99897.63;6188277;22;45835;-78
2023/01/14 12:57:25;;;;;;;;;0.50;0.50;;;;;13.26;73.70;99884.22;6213931;22;45659;-80
2023/01/14 13:03:20;;;;;;;;;1.00;1.00;;;;;13.35;74.33;99872.81;6273687;22;45680;-78
2023/01/14 13:05:45;;;;;;;;;1.00;0.25;;;;;13.36;73.78;99874.47;6269764;22;45744;-78
2023/01/14 13:08:30;;;;;;;;;0.75;0.75;;;;;13.26;74.37;99843.94;6271032;22;46188;-77
2023/01/14 13:11:25;;;;;;;;;1.25;1.00;;;;;13.39;74.55;99878.63;6271431;22;46970;-78
2023/01/14 13:13:54;;;;;;;;;2.00;2.00;;;;;13.36;74.51;99898.16;6270100;22;45641;-78
2023/01/14 13:19:53;;;;;;;;;1.00;1.00;;;;;13.39;74.66;99865.47;6270761;22;45679;-75
2023/01/14 13:22:49;;;;;;;;;2.00;1.00;;;;;13.40;74.21;99856.59;6269758;22;47326;-75
2023/01/14 13:25:43;;;;;;;;;0.00;0.00;;;;;13.40;74.64;99839.00;6270225;22;45619;-73
2023/01/14 13:28:11;;;;;;;;;1.50;1.50;;;;;13.43;74.34;99835.28;6271933;22;45616;-73
2023/01/14 13:30:46;;;;;;;;;1.00;1.00;;;;;13.42;75.01;99844.97;6271772;22;45423;-76
2023/01/14 13:33:26;;;;;;;;;2.00;2.00;;;;;13.42;75.06;99830.97;6286544;22;47218;-74
2023/01/14 13:36:10;;;;;;;;;1.50;1.00;;;;;13.44;75.18;99821.94;6301825;22;45669;-77
2023/01/14 13:38:57;;;;;;;;;1.50;0.25;;;;;13.43;75.66;99816.84;6274939;22;45782;-74
2023/01/14 13:41:43;;;;;;;;;1.00;1.00;;;;;13.39;76.08;99816.28;6302211;22;45490;-74
2023/01/14 13:44:33;;;;;;;;;1.00;1.00;;;;;13.40;76.12;99793.44;6303395;22;45803;-74
2023/01/14 13:47:17;;;;;;;;;1.00;1.00;;;;;13.37;76.73;99809.53;6304208;22;45646;-73
2023/01/14 13:49:52;;;;;;;;;1.00;1.00;;;;;13.37;76.54;99807.75;6276075;22;45658;-75
2023/01/14 13:52:23;;;;;;;;;1.00;1.00;;;;;13.35;76.82;99801.78;6302588;22;47000;-73
2023/01/14 13:55:17;;;;;;;;;1.25;0.25;;;;;13.33;76.92;99789.78;6302158;22;45900;-75
2023/01/14 13:57:49;;;;;;;;;1.00;0.00;;;;;13.30;77.15;99795.31;6304877;22;45596;-76